GCGM/GMZ METAR and TAF weather

Enter ICAO airport designator
Station Type Date Time Source
GCGM METAR 2019/10/20 18:30 UTC NOAA

GCGM 201830Z AUTO 22004KT 9999 -RA SCT030 SCT035 BKN044 20/19 Q1017 RMK R09/VRB02KT ARP/25003KT 210V280


Station Type Date Time Source
GCGM Decoded METAR 2019/10/20 18:30 UTC NOAA

Station name not available
Oct 20, 2019 - 02:30 PM EDT / 2019.10.20 1830 UTC
Wind: from the SW (220 degrees) at 5 MPH (4 KT):0
Visibility: greater than 7 mile(s):0
Sky conditions: mostly cloudy
Weather: light rain
Temperature: 68 F (20 C)
Dew Point: 66 F (19 C)
Relative Humidity: 93%
Pressure (altimeter): 30.03 in. Hg (1017 hPa)
ob: GCGM 201830Z AUTO 22004KT 9999 -RA SCT030 SCT035 BKN044 20/19 Q1017 RMK R09/VRB02KT ARP/25003KT 210V280
cycle: 18

Station Type Date Time Source
GCGM TAF 2019/10/20 15:00 UTC NOAA

TAF GCGM 201400Z 2015/2115 14005KT 9999 BKN030 TX24/2114Z TN19/2105Z PROB30
TEMPO 2018/2106 36018KT

Example: see airport list